sensor_id;sensor_type;location;lat;lon;timestamp;P1;durP1;ratioP1;P2;durP2;ratioP2
757;SDS011;363;48.764;9.172;2022-08-19T00:01:35;13.93;;;12.63;;
757;SDS011;363;48.764;9.172;2022-08-19T00:04:04;14.73;;;13.43;;
757;SDS011;363;48.764;9.172;2022-08-19T00:06:32;15.30;;;13.90;;
757;SDS011;363;48.764;9.172;2022-08-19T00:08:58;14.97;;;13.50;;
757;SDS011;363;48.764;9.172;2022-08-19T00:11:27;14.40;;;13.10;;
757;SDS011;363;48.764;9.172;2022-08-19T00:13:54;13.93;;;12.63;;
757;SDS011;363;48.764;9.172;2022-08-19T00:16:21;14.43;;;13.13;;
757;SDS011;363;48.764;9.172;2022-08-19T00:18:47;14.80;;;13.30;;
757;SDS011;363;48.764;9.172;2022-08-19T00:21:13;13.90;;;12.67;;
757;SDS011;363;48.764;9.172;2022-08-19T00:23:39;14.33;;;13.07;;
757;SDS011;363;48.764;9.172;2022-08-19T00:26:06;14.23;;;12.93;;
757;SDS011;363;48.764;9.172;2022-08-19T00:28:32;14.13;;;12.67;;
757;SDS011;363;48.764;9.172;2022-08-19T00:31:00;13.35;;;12.15;;
757;SDS011;363;48.764;9.172;2022-08-19T00:33:26;13.43;;;12.20;;
757;SDS011;363;48.764;9.172;2022-08-19T00:35:52;13.83;;;12.60;;
757;SDS011;363;48.764;9.172;2022-08-19T00:38:19;15.13;;;13.73;;
757;SDS011;363;48.764;9.172;2022-08-19T00:40:47;14.23;;;12.93;;
757;SDS011;363;48.764;9.172;2022-08-19T00:43:13;15.00;;;13.60;;
757;SDS011;363;48.764;9.172;2022-08-19T00:45:45;14.43;;;13.03;;
757;SDS011;363;48.764;9.172;2022-08-19T00:48:10;14.30;;;13.00;;
757;SDS011;363;48.764;9.172;2022-08-19T00:50:36;14.70;;;13.40;;
757;SDS011;363;48.764;9.172;2022-08-19T00:53:05;14.47;;;13.13;;
757;SDS011;363;48.764;9.172;2022-08-19T00:55:32;14.10;;;12.80;;
757;SDS011;363;48.764;9.172;2022-08-19T00:58:01;15.73;;;13.95;;
757;SDS011;363;48.764;9.172;2022-08-19T01:00:31;14.43;;;12.93;;
757;SDS011;363;48.764;9.172;2022-08-19T01:03:00;14.70;;;13.23;;
757;SDS011;363;48.764;9.172;2022-08-19T01:05:26;15.63;;;13.73;;
757;SDS011;363;48.764;9.172;2022-08-19T01:07:54;13.70;;;12.40;;
757;SDS011;363;48.764;9.172;2022-08-19T01:10:23;13.90;;;12.60;;
757;SDS011;363;48.764;9.172;2022-08-19T01:12:51;14.83;;;13.43;;
757;SDS011;363;48.764;9.172;2022-08-19T01:15:20;15.10;;;13.63;;
757;SDS011;363;48.764;9.172;2022-08-19T01:17:48;15.60;;;14.20;;
757;SDS011;363;48.764;9.172;2022-08-19T01:20:17;14.52;;;13.23;;
757;SDS011;363;48.764;9.172;2022-08-19T01:22:46;14.80;;;13.40;;
757;SDS011;363;48.764;9.172;2022-08-19T01:25:18;15.73;;;14.27;;
757;SDS011;363;48.764;9.172;2022-08-19T01:27:47;13.57;;;12.33;;
757;SDS011;363;48.764;9.172;2022-08-19T01:30:16;15.60;;;14.00;;
757;SDS011;363;48.764;9.172;2022-08-19T01:32:45;15.33;;;13.73;;
757;SDS011;363;48.764;9.172;2022-08-19T01:35:11;14.70;;;13.40;;
757;SDS011;363;48.764;9.172;2022-08-19T01:37:48;14.67;;;13.30;;
757;SDS011;363;48.764;9.172;2022-08-19T01:40:15;15.07;;;13.67;;
757;SDS011;363;48.764;9.172;2022-08-19T01:42:41;15.80;;;14.20;;
757;SDS011;363;48.764;9.172;2022-08-19T01:45:07;15.00;;;13.70;;
757;SDS011;363;48.764;9.172;2022-08-19T01:47:36;16.20;;;13.90;;
757;SDS011;363;48.764;9.172;2022-08-19T01:50:03;14.97;;;13.67;;
757;SDS011;363;48.764;9.172;2022-08-19T01:52:30;15.17;;;13.87;;
757;SDS011;363;48.764;9.172;2022-08-19T01:54:56;17.73;;;15.93;;
757;SDS011;363;48.764;9.172;2022-08-19T01:57:21;15.63;;;14.23;;
757;SDS011;363;48.764;9.172;2022-08-19T01:59:47;14.40;;;13.03;;
757;SDS011;363;48.764;9.172;2022-08-19T02:02:13;17.93;;;16.27;;
757;SDS011;363;48.764;9.172;2022-08-19T02:04:38;15.53;;;14.10;;
757;SDS011;363;48.764;9.172;2022-08-19T02:07:04;15.93;;;14.53;;
757;SDS011;363;48.764;9.172;2022-08-19T02:09:31;15.97;;;14.57;;
757;SDS011;363;48.764;9.172;2022-08-19T02:11:57;17.00;;;15.40;;
757;SDS011;363;48.764;9.172;2022-08-19T02:14:23;15.57;;;14.07;;
757;SDS011;363;48.764;9.172;2022-08-19T02:16:49;15.33;;;14.00;;
757;SDS011;363;48.764;9.172;2022-08-19T02:19:14;16.07;;;14.43;;
757;SDS011;363;48.764;9.172;2022-08-19T02:21:40;16.80;;;15.30;;
757;SDS011;363;48.764;9.172;2022-08-19T02:24:06;15.60;;;14.17;;
757;SDS011;363;48.764;9.172;2022-08-19T02:26:32;16.63;;;15.10;;
757;SDS011;363;48.764;9.172;2022-08-19T02:28:58;17.07;;;15.30;;
757;SDS011;363;48.764;9.172;2022-08-19T02:31:25;16.97;;;15.37;;
757;SDS011;363;48.764;9.172;2022-08-19T02:33:52;16.53;;;15.03;;
757;SDS011;363;48.764;9.172;2022-08-19T02:36:18;16.50;;;14.90;;
757;SDS011;363;48.764;9.172;2022-08-19T02:38:45;16.23;;;14.60;;
757;SDS011;363;48.764;9.172;2022-08-19T02:41:12;17.20;;;15.40;;
757;SDS011;363;48.764;9.172;2022-08-19T02:43:42;16.05;;;14.55;;
757;SDS011;363;48.764;9.172;2022-08-19T02:46:18;17.50;;;16.00;;
757;SDS011;363;48.764;9.172;2022-08-19T02:48:50;17.50;;;15.70;;
757;SDS011;363;48.764;9.172;2022-08-19T02:51:21;16.50;;;14.80;;
757;SDS011;363;48.764;9.172;2022-08-19T02:53:48;16.33;;;14.73;;
757;SDS011;363;48.764;9.172;2022-08-19T02:56:14;18.27;;;16.50;;
757;SDS011;363;48.764;9.172;2022-08-19T02:58:40;17.10;;;15.43;;
757;SDS011;363;48.764;9.172;2022-08-19T03:01:06;19.90;;;18.08;;
757;SDS011;363;48.764;9.172;2022-08-19T03:03:32;18.93;;;17.23;;
757;SDS011;363;48.764;9.172;2022-08-19T03:06:32;19.03;;;17.23;;
757;SDS011;363;48.764;9.172;2022-08-19T03:08:51;19.90;;;18.02;;
757;SDS011;363;48.764;9.172;2022-08-19T03:11:20;20.55;;;18.52;;
757;SDS011;363;48.764;9.172;2022-08-19T03:13:48;19.70;;;17.57;;
757;SDS011;363;48.764;9.172;2022-08-19T03:16:15;18.75;;;17.05;;
757;SDS011;363;48.764;9.172;2022-08-19T03:18:45;20.05;;;18.08;;
757;SDS011;363;48.764;9.172;2022-08-19T03:21:18;19.23;;;17.33;;
757;SDS011;363;48.764;9.172;2022-08-19T03:23:46;22.52;;;20.27;;
757;SDS011;363;48.764;9.172;2022-08-19T03:26:12;21.43;;;19.33;;
757;SDS011;363;48.764;9.172;2022-08-19T03:28:39;20.83;;;18.83;;
757;SDS011;363;48.764;9.172;2022-08-19T03:31:12;22.25;;;20.15;;
757;SDS011;363;48.764;9.172;2022-08-19T03:33:39;19.85;;;17.75;;
757;SDS011;363;48.764;9.172;2022-08-19T03:38:34;22.23;;;19.98;;
757;SDS011;363;48.764;9.172;2022-08-19T03:41:02;21.05;;;19.02;;
757;SDS011;363;48.764;9.172;2022-08-19T03:43:31;20.03;;;18.13;;
757;SDS011;363;48.764;9.172;2022-08-19T03:46:07;19.98;;;17.98;;
757;SDS011;363;48.764;9.172;2022-08-19T03:48:35;21.13;;;19.08;;
757;SDS011;363;48.764;9.172;2022-08-19T03:51:02;21.15;;;19.25;;
757;SDS011;363;48.764;9.172;2022-08-19T03:53:28;20.95;;;18.67;;
757;SDS011;363;48.764;9.172;2022-08-19T03:55:56;22.30;;;20.10;;
757;SDS011;363;48.764;9.172;2022-08-19T03:58:22;22.38;;;20.25;;
757;SDS011;363;48.764;9.172;2022-08-19T04:00:48;21.50;;;19.37;;
757;SDS011;363;48.764;9.172;2022-08-19T04:03:14;23.50;;;21.10;;
757;SDS011;363;48.764;9.172;2022-08-19T04:05:40;23.10;;;20.75;;
757;SDS011;363;48.764;9.172;2022-08-19T04:08:06;21.30;;;19.30;;
757;SDS011;363;48.764;9.172;2022-08-19T04:10:38;22.50;;;20.20;;
757;SDS011;363;48.764;9.172;2022-08-19T04:13:05;22.90;;;20.70;;
757;SDS011;363;48.764;9.172;2022-08-19T04:15:32;22.60;;;20.20;;
757;SDS011;363;48.764;9.172;2022-08-19T04:18:03;22.50;;;20.30;;
757;SDS011;363;48.764;9.172;2022-08-19T04:20:31;22.85;;;20.65;;
757;SDS011;363;48.764;9.172;2022-08-19T04:22:56;24.73;;;22.20;;
757;SDS011;363;48.764;9.172;2022-08-19T04:25:22;23.47;;;21.13;;
757;SDS011;363;48.764;9.172;2022-08-19T04:27:48;24.60;;;22.27;;
757;SDS011;363;48.764;9.172;2022-08-19T04:30:14;23.00;;;20.70;;
757;SDS011;363;48.764;9.172;2022-08-19T04:32:39;22.60;;;20.30;;
757;SDS011;363;48.764;9.172;2022-08-19T04:35:06;22.85;;;20.65;;
757;SDS011;363;48.764;9.172;2022-08-19T04:37:32;23.27;;;20.73;;
757;SDS011;363;48.764;9.172;2022-08-19T04:39:58;23.73;;;21.52;;
757;SDS011;363;48.764;9.172;2022-08-19T04:42:43;23.42;;;20.95;;
757;SDS011;363;48.764;9.172;2022-08-19T04:45:10;23.00;;;20.80;;
757;SDS011;363;48.764;9.172;2022-08-19T04:47:38;25.08;;;22.58;;
757;SDS011;363;48.764;9.172;2022-08-19T04:50:06;25.52;;;21.73;;
757;SDS011;363;48.764;9.172;2022-08-19T04:52:33;25.80;;;23.30;;
757;SDS011;363;48.764;9.172;2022-08-19T04:54:59;22.38;;;20.13;;
757;SDS011;363;48.764;9.172;2022-08-19T04:57:25;22.88;;;20.67;;
757;SDS011;363;48.764;9.172;2022-08-19T04:59:54;23.00;;;20.73;;
757;SDS011;363;48.764;9.172;2022-08-19T05:02:21;24.30;;;21.80;;
757;SDS011;363;48.764;9.172;2022-08-19T05:04:49;24.27;;;21.80;;
757;SDS011;363;48.764;9.172;2022-08-19T05:07:15;23.57;;;21.30;;
757;SDS011;363;48.764;9.172;2022-08-19T05:09:41;22.07;;;19.97;;
757;SDS011;363;48.764;9.172;2022-08-19T05:12:07;24.48;;;22.02;;
757;SDS011;363;48.764;9.172;2022-08-19T05:14:33;22.57;;;20.37;;
757;SDS011;363;48.764;9.172;2022-08-19T05:17:00;22.53;;;20.30;;
757;SDS011;363;48.764;9.172;2022-08-19T05:19:25;24.83;;;22.38;;
757;SDS011;363;48.764;9.172;2022-08-19T05:22:09;24.83;;;22.40;;
757;SDS011;363;48.764;9.172;2022-08-19T05:24:53;23.38;;;21.08;;
757;SDS011;363;48.764;9.172;2022-08-19T05:27:20;23.55;;;21.27;;
757;SDS011;363;48.764;9.172;2022-08-19T05:29:45;23.53;;;21.07;;
757;SDS011;363;48.764;9.172;2022-08-19T05:32:11;23.47;;;21.17;;
757;SDS011;363;48.764;9.172;2022-08-19T05:34:36;23.37;;;21.03;;
757;SDS011;363;48.764;9.172;2022-08-19T05:37:03;24.90;;;22.30;;
757;SDS011;363;48.764;9.172;2022-08-19T05:39:31;22.30;;;20.10;;
757;SDS011;363;48.764;9.172;2022-08-19T05:41:59;23.33;;;21.08;;
757;SDS011;363;48.764;9.172;2022-08-19T05:44:28;23.38;;;21.05;;
757;SDS011;363;48.764;9.172;2022-08-19T05:46:58;24.15;;;21.88;;
757;SDS011;363;48.764;9.172;2022-08-19T05:49:25;24.10;;;21.90;;
757;SDS011;363;48.764;9.172;2022-08-19T05:51:52;24.30;;;22.00;;
757;SDS011;363;48.764;9.172;2022-08-19T05:54:18;23.97;;;21.57;;
757;SDS011;363;48.764;9.172;2022-08-19T05:56:44;24.05;;;21.65;;
757;SDS011;363;48.764;9.172;2022-08-19T05:59:12;22.98;;;20.98;;
757;SDS011;363;48.764;9.172;2022-08-19T06:01:40;23.75;;;21.45;;
757;SDS011;363;48.764;9.172;2022-08-19T06:04:07;23.77;;;21.40;;
757;SDS011;363;48.764;9.172;2022-08-19T06:06:34;24.70;;;22.30;;
757;SDS011;363;48.764;9.172;2022-08-19T06:09:04;21.93;;;20.00;;
757;SDS011;363;48.764;9.172;2022-08-19T06:11:37;23.35;;;21.10;;
757;SDS011;363;48.764;9.172;2022-08-19T06:14:14;22.48;;;20.15;;
757;SDS011;363;48.764;9.172;2022-08-19T06:16:43;21.83;;;19.77;;
757;SDS011;363;48.764;9.172;2022-08-19T06:19:13;24.25;;;18.35;;
757;SDS011;363;48.764;9.172;2022-08-19T06:21:43;23.73;;;20.73;;
757;SDS011;363;48.764;9.172;2022-08-19T06:24:12;18.85;;;17.00;;
757;SDS011;363;48.764;9.172;2022-08-19T06:26:41;23.07;;;20.67;;
757;SDS011;363;48.764;9.172;2022-08-19T06:29:09;19.00;;;17.00;;
757;SDS011;363;48.764;9.172;2022-08-19T06:31:36;22.73;;;20.48;;
757;SDS011;363;48.764;9.172;2022-08-19T06:34:05;19.30;;;17.30;;
757;SDS011;363;48.764;9.172;2022-08-19T06:36:41;18.03;;;16.23;;
757;SDS011;363;48.764;9.172;2022-08-19T06:39:15;24.45;;;20.40;;
757;SDS011;363;48.764;9.172;2022-08-19T06:41:44;24.03;;;21.33;;
757;SDS011;363;48.764;9.172;2022-08-19T06:44:11;18.38;;;16.58;;
757;SDS011;363;48.764;9.172;2022-08-19T06:46:38;23.80;;;21.60;;
757;SDS011;363;48.764;9.172;2022-08-19T06:49:05;22.80;;;20.53;;
757;SDS011;363;48.764;9.172;2022-08-19T06:51:34;25.13;;;22.73;;
757;SDS011;363;48.764;9.172;2022-08-19T06:53:59;26.40;;;23.70;;
757;SDS011;363;48.764;9.172;2022-08-19T06:56:28;25.77;;;23.17;;
757;SDS011;363;48.764;9.172;2022-08-19T06:59:05;22.13;;;20.02;;
757;SDS011;363;48.764;9.172;2022-08-19T07:01:36;19.20;;;17.20;;
757;SDS011;363;48.764;9.172;2022-08-19T07:04:05;22.30;;;20.10;;
757;SDS011;363;48.764;9.172;2022-08-19T07:06:32;23.37;;;20.97;;
757;SDS011;363;48.764;9.172;2022-08-19T07:08:57;17.53;;;15.93;;
757;SDS011;363;48.764;9.172;2022-08-19T07:11:23;22.70;;;20.40;;
757;SDS011;363;48.764;9.172;2022-08-19T07:13:49;21.00;;;18.90;;
757;SDS011;363;48.764;9.172;2022-08-19T07:16:16;22.40;;;20.30;;
757;SDS011;363;48.764;9.172;2022-08-19T07:18:44;22.57;;;20.27;;
757;SDS011;363;48.764;9.172;2022-08-19T07:21:13;21.20;;;19.00;;
757;SDS011;363;48.764;9.172;2022-08-19T07:23:42;18.00;;;16.40;;
757;SDS011;363;48.764;9.172;2022-08-19T07:26:10;21.77;;;19.77;;
757;SDS011;363;48.764;9.172;2022-08-19T07:28:38;22.60;;;20.50;;
757;SDS011;363;48.764;9.172;2022-08-19T07:31:07;21.85;;;19.75;;
757;SDS011;363;48.764;9.172;2022-08-19T07:33:35;21.30;;;19.30;;
757;SDS011;363;48.764;9.172;2022-08-19T07:36:02;19.23;;;17.37;;
757;SDS011;363;48.764;9.172;2022-08-19T07:38:32;23.43;;;21.03;;
757;SDS011;363;48.764;9.172;2022-08-19T07:40:59;20.33;;;18.37;;
757;SDS011;363;48.764;9.172;2022-08-19T07:43:26;23.97;;;21.50;;
757;SDS011;363;48.764;9.172;2022-08-19T07:45:52;23.30;;;20.98;;
757;SDS011;363;48.764;9.172;2022-08-19T07:48:22;22.10;;;19.97;;
757;SDS011;363;48.764;9.172;2022-08-19T07:50:52;23.83;;;21.42;;
757;SDS011;363;48.764;9.172;2022-08-19T07:53:19;21.85;;;19.75;;
757;SDS011;363;48.764;9.172;2022-08-19T07:55:45;25.10;;;20.57;;
757;SDS011;363;48.764;9.172;2022-08-19T07:58:12;22.10;;;19.93;;
757;SDS011;363;48.764;9.172;2022-08-19T08:00:41;22.27;;;19.47;;
757;SDS011;363;48.764;9.172;2022-08-19T08:03:07;22.00;;;19.35;;
757;SDS011;363;48.764;9.172;2022-08-19T08:05:33;21.23;;;19.10;;
757;SDS011;363;48.764;9.172;2022-08-19T08:08:18;22.40;;;20.30;;
757;SDS011;363;48.764;9.172;2022-08-19T08:11:07;21.60;;;19.40;;
757;SDS011;363;48.764;9.172;2022-08-19T08:13:33;20.98;;;18.92;;
757;SDS011;363;48.764;9.172;2022-08-19T08:16:03;20.60;;;18.63;;
757;SDS011;363;48.764;9.172;2022-08-19T08:18:28;20.40;;;18.48;;
757;SDS011;363;48.764;9.172;2022-08-19T08:20:55;21.90;;;19.60;;
757;SDS011;363;48.764;9.172;2022-08-19T08:23:21;22.25;;;19.95;;
757;SDS011;363;48.764;9.172;2022-08-19T08:25:50;20.65;;;18.60;;
757;SDS011;363;48.764;9.172;2022-08-19T08:28:17;22.95;;;19.00;;
757;SDS011;363;48.764;9.172;2022-08-19T08:30:44;19.45;;;17.58;;
757;SDS011;363;48.764;9.172;2022-08-19T08:33:10;21.35;;;19.27;;
757;SDS011;363;48.764;9.172;2022-08-19T08:35:36;22.00;;;19.80;;
757;SDS011;363;48.764;9.172;2022-08-19T08:38:03;23.03;;;20.67;;
757;SDS011;363;48.764;9.172;2022-08-19T08:40:34;21.25;;;19.10;;
757;SDS011;363;48.764;9.172;2022-08-19T08:43:32;23.88;;;21.30;;
757;SDS011;363;48.764;9.172;2022-08-19T08:46:05;22.50;;;20.20;;
757;SDS011;363;48.764;9.172;2022-08-19T08:48:36;20.52;;;18.52;;
757;SDS011;363;48.764;9.172;2022-08-19T08:51:17;21.23;;;19.23;;
757;SDS011;363;48.764;9.172;2022-08-19T08:53:47;21.55;;;19.55;;
757;SDS011;363;48.764;9.172;2022-08-19T08:56:16;22.13;;;19.90;;
757;SDS011;363;48.764;9.172;2022-08-19T08:58:47;22.97;;;20.60;;
757;SDS011;363;48.764;9.172;2022-08-19T09:01:27;19.98;;;17.80;;
757;SDS011;363;48.764;9.172;2022-08-19T09:03:52;21.63;;;19.43;;
757;SDS011;363;48.764;9.172;2022-08-19T09:11:33;20.40;;;18.52;;
757;SDS011;363;48.764;9.172;2022-08-19T09:16:45;23.33;;;21.13;;
757;SDS011;363;48.764;9.172;2022-08-19T09:19:11;20.83;;;18.83;;
757;SDS011;363;48.764;9.172;2022-08-19T09:21:36;20.60;;;18.60;;
757;SDS011;363;48.764;9.172;2022-08-19T09:24:03;20.67;;;18.95;;
757;SDS011;363;48.764;9.172;2022-08-19T09:26:30;20.00;;;18.00;;
757;SDS011;363;48.764;9.172;2022-08-19T09:28:57;19.95;;;18.05;;
757;SDS011;363;48.764;9.172;2022-08-19T09:31:28;21.58;;;19.58;;
757;SDS011;363;48.764;9.172;2022-08-19T09:33:54;21.33;;;19.30;;
757;SDS011;363;48.764;9.172;2022-08-19T09:36:24;20.73;;;18.83;;
757;SDS011;363;48.764;9.172;2022-08-19T09:38:54;21.33;;;19.23;;
757;SDS011;363;48.764;9.172;2022-08-19T09:41:21;20.03;;;18.10;;
757;SDS011;363;48.764;9.172;2022-08-19T09:43:49;19.88;;;17.85;;
757;SDS011;363;48.764;9.172;2022-08-19T09:46:17;18.97;;;17.07;;
757;SDS011;363;48.764;9.172;2022-08-19T09:48:44;18.70;;;17.02;;
757;SDS011;363;48.764;9.172;2022-08-19T09:51:13;19.40;;;17.50;;
757;SDS011;363;48.764;9.172;2022-08-19T09:53:45;20.13;;;18.20;;
757;SDS011;363;48.764;9.172;2022-08-19T09:56:11;19.57;;;17.63;;
757;SDS011;363;48.764;9.172;2022-08-19T09:58:38;18.47;;;16.77;;
757;SDS011;363;48.764;9.172;2022-08-19T10:01:06;17.90;;;16.20;;
757;SDS011;363;48.764;9.172;2022-08-19T10:03:33;19.27;;;16.70;;
757;SDS011;363;48.764;9.172;2022-08-19T10:06:01;17.97;;;16.17;;
757;SDS011;363;48.764;9.172;2022-08-19T10:08:31;16.90;;;15.30;;
757;SDS011;363;48.764;9.172;2022-08-19T10:10:59;16.57;;;14.93;;
757;SDS011;363;48.764;9.172;2022-08-19T10:13:27;16.90;;;15.40;;
757;SDS011;363;48.764;9.172;2022-08-19T10:15:55;16.50;;;15.03;;
757;SDS011;363;48.764;9.172;2022-08-19T10:18:26;16.17;;;14.70;;
757;SDS011;363;48.764;9.172;2022-08-19T10:20:52;16.93;;;15.10;;
757;SDS011;363;48.764;9.172;2022-08-19T10:23:27;16.87;;;15.33;;
757;SDS011;363;48.764;9.172;2022-08-19T10:25:55;16.70;;;15.10;;
757;SDS011;363;48.764;9.172;2022-08-19T10:28:24;16.03;;;14.40;;
757;SDS011;363;48.764;9.172;2022-08-19T10:30:50;17.80;;;16.07;;
757;SDS011;363;48.764;9.172;2022-08-19T10:33:16;16.50;;;15.00;;
757;SDS011;363;48.764;9.172;2022-08-19T10:35:41;16.63;;;15.00;;
757;SDS011;363;48.764;9.172;2022-08-19T10:38:07;15.97;;;14.37;;
757;SDS011;363;48.764;9.172;2022-08-19T10:40:32;16.40;;;14.80;;
757;SDS011;363;48.764;9.172;2022-08-19T10:42:58;16.07;;;14.70;;
757;SDS011;363;48.764;9.172;2022-08-19T10:45:23;15.83;;;14.43;;
757;SDS011;363;48.764;9.172;2022-08-19T10:47:51;16.43;;;14.83;;
757;SDS011;363;48.764;9.172;2022-08-19T10:50:17;15.50;;;14.00;;
757;SDS011;363;48.764;9.172;2022-08-19T10:53:06;14.20;;;12.90;;
757;SDS011;363;48.764;9.172;2022-08-19T10:55:33;15.83;;;14.23;;
757;SDS011;363;48.764;9.172;2022-08-19T10:58:19;14.53;;;13.23;;
757;SDS011;363;48.764;9.172;2022-08-19T11:00:51;14.90;;;12.47;;
757;SDS011;363;48.764;9.172;2022-08-19T11:03:18;13.50;;;12.30;;
757;SDS011;363;48.764;9.172;2022-08-19T11:05:44;15.43;;;13.90;;
757;SDS011;363;48.764;9.172;2022-08-19T11:08:09;13.63;;;12.30;;
757;SDS011;363;48.764;9.172;2022-08-19T11:10:36;14.17;;;12.80;;
757;SDS011;363;48.764;9.172;2022-08-19T11:13:06;12.77;;;11.77;;
757;SDS011;363;48.764;9.172;2022-08-19T11:15:31;12.83;;;11.80;;
757;SDS011;363;48.764;9.172;2022-08-19T11:17:58;12.90;;;11.70;;
757;SDS011;363;48.764;9.172;2022-08-19T11:20:23;12.53;;;11.50;;
757;SDS011;363;48.764;9.172;2022-08-19T11:22:50;11.90;;;10.80;;
757;SDS011;363;48.764;9.172;2022-08-19T11:25:17;12.50;;;11.27;;
757;SDS011;363;48.764;9.172;2022-08-19T11:27:43;13.37;;;12.00;;
757;SDS011;363;48.764;9.172;2022-08-19T11:30:10;12.23;;;11.10;;
757;SDS011;363;48.764;9.172;2022-08-19T11:32:36;12.27;;;11.13;;
757;SDS011;363;48.764;9.172;2022-08-19T11:35:02;12.87;;;11.63;;
757;SDS011;363;48.764;9.172;2022-08-19T11:37:28;13.00;;;11.90;;
757;SDS011;363;48.764;9.172;2022-08-19T11:39:54;12.40;;;11.40;;
757;SDS011;363;48.764;9.172;2022-08-19T11:42:19;12.73;;;11.53;;
757;SDS011;363;48.764;9.172;2022-08-19T11:45:03;11.67;;;10.53;;
757;SDS011;363;48.764;9.172;2022-08-19T11:47:29;12.17;;;11.17;;
757;SDS011;363;48.764;9.172;2022-08-19T11:49:55;13.27;;;12.17;;
757;SDS011;363;48.764;9.172;2022-08-19T11:52:21;12.17;;;11.13;;
757;SDS011;363;48.764;9.172;2022-08-19T11:54:47;11.17;;;10.27;;
757;SDS011;363;48.764;9.172;2022-08-19T11:57:13;11.07;;;10.20;;
757;SDS011;363;48.764;9.172;2022-08-19T11:59:41;13.10;;;12.00;;
757;SDS011;363;48.764;9.172;2022-08-19T12:02:07;12.10;;;11.00;;
757;SDS011;363;48.764;9.172;2022-08-19T12:04:33;12.13;;;11.13;;
757;SDS011;363;48.764;9.172;2022-08-19T12:06:59;11.33;;;10.20;;
757;SDS011;363;48.764;9.172;2022-08-19T12:09:25;11.53;;;10.53;;
757;SDS011;363;48.764;9.172;2022-08-19T12:11:50;11.43;;;10.53;;
757;SDS011;363;48.764;9.172;2022-08-19T12:14:16;10.97;;;10.17;;
757;SDS011;363;48.764;9.172;2022-08-19T12:16:43;10.77;;;9.97;;
757;SDS011;363;48.764;9.172;2022-08-19T12:19:11;11.30;;;10.30;;
757;SDS011;363;48.764;9.172;2022-08-19T12:21:36;10.27;;;9.47;;
757;SDS011;363;48.764;9.172;2022-08-19T12:24:03;11.70;;;10.70;;
757;SDS011;363;48.764;9.172;2022-08-19T12:26:30;11.43;;;10.43;;
757;SDS011;363;48.764;9.172;2022-08-19T12:28:56;12.03;;;10.87;;
757;SDS011;363;48.764;9.172;2022-08-19T12:31:24;11.23;;;10.37;;
757;SDS011;363;48.764;9.172;2022-08-19T12:33:50;11.37;;;10.37;;
757;SDS011;363;48.764;9.172;2022-08-19T12:36:17;11.80;;;10.77;;
757;SDS011;363;48.764;9.172;2022-08-19T12:38:43;12.53;;;10.27;;
757;SDS011;363;48.764;9.172;2022-08-19T12:41:10;11.83;;;10.83;;
757;SDS011;363;48.764;9.172;2022-08-19T12:43:37;11.57;;;10.53;;
757;SDS011;363;48.764;9.172;2022-08-19T12:46:03;11.17;;;10.00;;
757;SDS011;363;48.764;9.172;2022-08-19T12:48:30;11.30;;;10.30;;
757;SDS011;363;48.764;9.172;2022-08-19T12:50:57;12.67;;;11.47;;
757;SDS011;363;48.764;9.172;2022-08-19T12:53:22;12.57;;;11.47;;
757;SDS011;363;48.764;9.172;2022-08-19T12:55:54;12.47;;;11.47;;
757;SDS011;363;48.764;9.172;2022-08-19T12:58:21;11.37;;;10.43;;
757;SDS011;363;48.764;9.172;2022-08-19T13:00:46;11.60;;;10.50;;
757;SDS011;363;48.764;9.172;2022-08-19T13:03:13;10.57;;;9.77;;
757;SDS011;363;48.764;9.172;2022-08-19T13:05:40;11.73;;;10.80;;
757;SDS011;363;48.764;9.172;2022-08-19T13:08:06;11.90;;;10.90;;
757;SDS011;363;48.764;9.172;2022-08-19T13:10:33;12.20;;;11.20;;
757;SDS011;363;48.764;9.172;2022-08-19T13:13:00;14.07;;;12.67;;
757;SDS011;363;48.764;9.172;2022-08-19T13:15:28;14.23;;;12.73;;
757;SDS011;363;48.764;9.172;2022-08-19T13:17:57;15.13;;;13.80;;
757;SDS011;363;48.764;9.172;2022-08-19T13:20:23;13.43;;;12.33;;
757;SDS011;363;48.764;9.172;2022-08-19T13:22:49;14.97;;;13.63;;
757;SDS011;363;48.764;9.172;2022-08-19T13:25:15;16.50;;;15.10;;
757;SDS011;363;48.764;9.172;2022-08-19T13:27:42;18.93;;;17.23;;
757;SDS011;363;48.764;9.172;2022-08-19T13:30:09;19.80;;;17.90;;
757;SDS011;363;48.764;9.172;2022-08-19T13:32:57;20.73;;;18.73;;
757;SDS011;363;48.764;9.172;2022-08-19T13:35:48;20.40;;;17.63;;
757;SDS011;363;48.764;9.172;2022-08-19T13:38:20;21.03;;;18.83;;
757;SDS011;363;48.764;9.172;2022-08-19T13:40:46;21.33;;;19.33;;
757;SDS011;363;48.764;9.172;2022-08-19T13:43:16;22.03;;;19.90;;
757;SDS011;363;48.764;9.172;2022-08-19T13:45:42;22.80;;;20.80;;
757;SDS011;363;48.764;9.172;2022-08-19T13:48:08;23.20;;;21.03;;
757;SDS011;363;48.764;9.172;2022-08-19T13:50:43;24.53;;;22.03;;
757;SDS011;363;48.764;9.172;2022-08-19T13:53:11;24.77;;;22.47;;
757;SDS011;363;48.764;9.172;2022-08-19T13:55:38;21.77;;;19.70;;
757;SDS011;363;48.764;9.172;2022-08-19T13:58:04;24.17;;;21.77;;
757;SDS011;363;48.764;9.172;2022-08-19T14:00:31;25.10;;;22.53;;
757;SDS011;363;48.764;9.172;2022-08-19T14:02:59;26.97;;;24.37;;
757;SDS011;363;48.764;9.172;2022-08-19T14:05:26;26.50;;;23.90;;
757;SDS011;363;48.764;9.172;2022-08-19T14:07:53;27.40;;;24.70;;
757;SDS011;363;48.764;9.172;2022-08-19T14:10:19;26.20;;;23.50;;
757;SDS011;363;48.764;9.172;2022-08-19T14:12:46;28.90;;;26.00;;
757;SDS011;363;48.764;9.172;2022-08-19T14:15:12;29.60;;;26.67;;
757;SDS011;363;48.764;9.172;2022-08-19T14:17:39;28.33;;;25.70;;
757;SDS011;363;48.764;9.172;2022-08-19T14:20:07;26.23;;;23.60;;
757;SDS011;363;48.764;9.172;2022-08-19T14:22:35;25.93;;;23.27;;
757;SDS011;363;48.764;9.172;2022-08-19T14:25:02;26.33;;;23.65;;
757;SDS011;363;48.764;9.172;2022-08-19T14:27:30;24.33;;;21.92;;
757;SDS011;363;48.764;9.172;2022-08-19T14:29:57;25.02;;;22.52;;
757;SDS011;363;48.764;9.172;2022-08-19T14:32:24;25.20;;;22.80;;
757;SDS011;363;48.764;9.172;2022-08-19T14:34:52;25.63;;;23.27;;
757;SDS011;363;48.764;9.172;2022-08-19T14:37:19;25.50;;;22.87;;
757;SDS011;363;48.764;9.172;2022-08-19T14:39:47;24.85;;;22.35;;
757;SDS011;363;48.764;9.172;2022-08-19T14:42:12;23.43;;;21.33;;
757;SDS011;363;48.764;9.172;2022-08-19T14:44:42;24.10;;;21.77;;
757;SDS011;363;48.764;9.172;2022-08-19T14:47:07;21.92;;;19.52;;
757;SDS011;363;48.764;9.172;2022-08-19T14:49:33;22.73;;;20.30;;
757;SDS011;363;48.764;9.172;2022-08-19T14:51:59;21.87;;;19.87;;
757;SDS011;363;48.764;9.172;2022-08-19T14:54:25;23.07;;;20.77;;
757;SDS011;363;48.764;9.172;2022-08-19T14:56:51;21.40;;;19.40;;
757;SDS011;363;48.764;9.172;2022-08-19T14:59:16;20.60;;;18.60;;
757;SDS011;363;48.764;9.172;2022-08-19T15:01:42;20.63;;;18.83;;
757;SDS011;363;48.764;9.172;2022-08-19T15:04:08;19.73;;;17.70;;
757;SDS011;363;48.764;9.172;2022-08-19T15:06:33;22.57;;;20.33;;
757;SDS011;363;48.764;9.172;2022-08-19T15:08:59;20.10;;;18.13;;
757;SDS011;363;48.764;9.172;2022-08-19T15:11:26;17.80;;;16.23;;
757;SDS011;363;48.764;9.172;2022-08-19T15:13:53;18.33;;;16.80;;
757;SDS011;363;48.764;9.172;2022-08-19T15:16:20;18.00;;;16.40;;
757;SDS011;363;48.764;9.172;2022-08-19T15:18:48;19.20;;;17.27;;
757;SDS011;363;48.764;9.172;2022-08-19T15:21:16;17.13;;;15.63;;
757;SDS011;363;48.764;9.172;2022-08-19T15:23:43;17.73;;;16.17;;
757;SDS011;363;48.764;9.172;2022-08-19T15:26:09;17.90;;;16.20;;
757;SDS011;363;48.764;9.172;2022-08-19T15:28:36;16.43;;;15.03;;
757;SDS011;363;48.764;9.172;2022-08-19T15:31:02;17.27;;;15.67;;